createdAt,value
2022-10-22T00:00:54.140Z,12.53
2022-10-22T00:03:20.446Z,11.76
2022-10-22T00:05:47.726Z,11.69
2022-10-22T00:08:14.151Z,11.58
2022-10-22T00:10:41.279Z,11.55
2022-10-22T00:13:07.759Z,11.45
2022-10-22T00:15:34.160Z,11.42
2022-10-22T00:18:00.475Z,11.40
2022-10-22T00:20:26.849Z,11.42
2022-10-22T00:22:53.153Z,11.43
2022-10-22T00:25:19.605Z,11.46
2022-10-22T00:27:45.955Z,11.45
2022-10-22T00:30:12.459Z,11.48
2022-10-22T00:32:39.442Z,11.44
2022-10-22T00:35:07.398Z,11.38
2022-10-22T00:37:33.835Z,11.38
2022-10-22T00:40:00.178Z,11.37
2022-10-22T00:42:28.029Z,11.35
2022-10-22T00:45:09.574Z,11.29
2022-10-22T00:47:59.346Z,11.27
2022-10-22T00:50:43.543Z,11.32
2022-10-22T00:53:16.040Z,11.36
2022-10-22T00:55:45.116Z,11.38
2022-10-22T00:58:13.106Z,11.44
2022-10-22T01:00:39.961Z,11.48
2022-10-22T01:03:06.766Z,11.47
2022-10-22T01:05:42.404Z,11.51
2022-10-22T01:08:17.071Z,11.50
2022-10-22T01:11:02.247Z,11.57
2022-10-22T01:13:41.871Z,11.52
2022-10-22T01:16:24.463Z,11.55
2022-10-22T01:19:25.880Z,11.47
2022-10-22T01:22:08.311Z,11.46
2022-10-22T01:24:47.389Z,11.46
2022-10-22T01:27:28.914Z,11.43
2022-10-22T01:30:02.995Z,11.43
2022-10-22T01:32:33.061Z,11.41
2022-10-22T01:35:07.175Z,11.33
2022-10-22T01:37:38.681Z,11.36
2022-10-22T01:40:07.382Z,11.39
2022-10-22T01:42:33.733Z,11.40
2022-10-22T01:45:00.121Z,11.44
2022-10-22T01:47:48.498Z,11.42
2022-10-22T01:50:23.565Z,11.42
2022-10-22T01:53:11.162Z,11.46
2022-10-22T01:55:52.823Z,11.47
2022-10-22T01:58:37.880Z,11.42
2022-10-22T02:01:16.082Z,11.41
2022-10-22T02:03:50.296Z,11.39
2022-10-22T02:06:20.519Z,11.40
2022-10-22T02:08:49.278Z,11.37
2022-10-22T02:11:15.843Z,11.44
2022-10-22T02:13:48.270Z,11.44
2022-10-22T02:16:31.964Z,11.41
2022-10-22T02:19:02.612Z,11.44
2022-10-22T02:21:29.630Z,11.45
2022-10-22T02:23:56.329Z,11.36
2022-10-22T02:26:31.986Z,11.30
2022-10-22T02:29:14.015Z,11.24
2022-10-22T02:31:43.189Z,11.25
2022-10-22T02:34:15.733Z,11.12
2022-10-22T02:36:46.771Z,11.15
2022-10-22T02:39:19.011Z,11.14
2022-10-22T02:41:45.359Z,11.16
2022-10-22T02:44:11.926Z,11.14
2022-10-22T02:46:40.278Z,11.20
2022-10-22T02:49:06.581Z,11.32
2022-10-22T02:51:32.956Z,11.29
2022-10-22T02:53:59.274Z,11.24
2022-10-22T02:56:25.665Z,11.22
2022-10-22T02:58:51.978Z,11.12
2022-10-22T03:01:18.326Z,11.03
2022-10-22T03:03:44.672Z,11.00
2022-10-22T03:06:11.100Z,10.91
2022-10-22T03:08:37.444Z,10.83
2022-10-22T03:11:03.942Z,10.78
2022-10-22T03:13:30.275Z,10.77
2022-10-22T03:15:56.623Z,10.76
2022-10-22T03:18:22.967Z,10.74
2022-10-22T03:20:49.403Z,10.69
2022-10-22T03:23:19.557Z,10.63
2022-10-22T03:25:48.148Z,10.66
2022-10-22T03:28:17.231Z,10.53
2022-10-22T03:30:43.546Z,10.56
2022-10-22T03:33:09.881Z,10.52
2022-10-22T03:35:42.491Z,10.47
2022-10-22T03:38:08.879Z,10.43
2022-10-22T03:40:35.263Z,10.42
2022-10-22T03:43:01.682Z,10.43
2022-10-22T03:45:28.082Z,10.37
2022-10-22T03:47:54.586Z,10.44
2022-10-22T03:50:20.911Z,10.40
2022-10-22T03:52:47.267Z,10.36
2022-10-22T03:55:13.617Z,10.36
2022-10-22T03:57:40.269Z,10.31
2022-10-22T04:00:07.476Z,10.21
2022-10-22T04:02:33.807Z,10.34
2022-10-22T04:05:00.210Z,10.39
2022-10-22T04:07:26.696Z,10.37
2022-10-22T04:09:53.080Z,10.49
2022-10-22T04:12:19.452Z,10.32
2022-10-22T04:14:45.768Z,10.36
2022-10-22T04:17:12.092Z,10.31
2022-10-22T04:19:38.466Z,10.33
2022-10-22T04:22:04.806Z,10.34
2022-10-22T04:24:32.068Z,10.33
2022-10-22T04:26:58.630Z,10.37
2022-10-22T04:29:25.448Z,10.44
2022-10-22T04:31:51.985Z,10.44
2022-10-22T04:34:18.367Z,10.43
2022-10-22T04:36:44.727Z,10.39
2022-10-22T04:39:11.046Z,10.39
2022-10-22T04:41:39.198Z,10.40
2022-10-22T04:44:06.315Z,10.35
2022-10-22T04:46:34.840Z,10.36
2022-10-22T04:49:01.777Z,10.32
2022-10-22T04:51:28.123Z,10.28
2022-10-22T04:53:54.729Z,10.27
2022-10-22T04:56:27.075Z,10.31
2022-10-22T04:59:02.038Z,10.37
2022-10-22T05:01:32.072Z,10.40
2022-10-22T05:04:00.265Z,10.36
2022-10-22T05:06:28.646Z,10.39
2022-10-22T05:09:01.063Z,10.35
2022-10-22T05:11:33.486Z,10.28
2022-10-22T05:14:01.267Z,10.31
2022-10-22T05:16:29.492Z,10.37
2022-10-22T05:18:57.446Z,10.47
2022-10-22T05:21:23.801Z,10.50
2022-10-22T05:23:50.774Z,10.59
2022-10-22T05:26:21.615Z,10.56
2022-10-22T05:28:49.471Z,10.54
2022-10-22T05:31:17.249Z,10.57
2022-10-22T05:33:43.944Z,10.73
2022-10-22T05:36:16.561Z,10.66
2022-10-22T05:38:42.891Z,10.63
2022-10-22T05:41:12.172Z,10.58
2022-10-22T05:43:38.536Z,10.54
2022-10-22T05:46:21.246Z,10.45
2022-10-22T05:48:50.315Z,10.44
2022-10-22T05:51:16.903Z,10.48
2022-10-22T05:53:43.985Z,10.49
2022-10-22T05:56:15.707Z,10.40
2022-10-22T05:58:43.225Z,10.43
2022-10-22T06:01:18.121Z,10.52
2022-10-22T06:03:44.889Z,10.45
2022-10-22T06:06:20.120Z,10.49
2022-10-22T06:08:48.862Z,10.54
2022-10-22T06:11:16.468Z,10.62
2022-10-22T06:13:42.760Z,10.61
2022-10-22T06:16:09.054Z,10.57
2022-10-22T06:18:35.389Z,10.58
2022-10-22T06:21:12.846Z,10.51
2022-10-22T06:23:39.965Z,10.50
2022-10-22T06:26:07.507Z,10.49
2022-10-22T06:28:34.118Z,10.40
2022-10-22T06:31:01.399Z,10.37
2022-10-22T06:33:29.561Z,10.44
2022-10-22T06:35:55.860Z,10.38
2022-10-22T06:38:22.165Z,10.43
2022-10-22T06:40:48.481Z,10.46
2022-10-22T06:43:14.879Z,10.46
2022-10-22T06:45:41.319Z,10.63
2022-10-22T06:48:07.691Z,10.76
2022-10-22T06:50:34.887Z,10.66
2022-10-22T06:53:01.327Z,10.80
2022-10-22T06:55:27.770Z,10.84
2022-10-22T06:57:55.532Z,10.94
2022-10-22T07:00:21.987Z,10.94
2022-10-22T07:02:54.323Z,11.05
2022-10-22T07:05:21.661Z,11.09
2022-10-22T07:07:48.059Z,11.16
2022-10-22T07:10:14.526Z,11.27
2022-10-22T07:12:40.950Z,11.35
2022-10-22T07:15:07.873Z,11.26
2022-10-22T07:17:34.241Z,11.35
2022-10-22T07:20:01.852Z,11.35
2022-10-22T07:22:28.178Z,11.44
2022-10-22T07:24:54.480Z,11.55
2022-10-22T07:27:20.808Z,11.76
2022-10-22T07:29:47.255Z,11.88
2022-10-22T07:32:13.891Z,11.89
2022-10-22T07:34:43.068Z,12.03
2022-10-22T07:37:10.233Z,12.12
2022-10-22T07:39:36.609Z,12.23
2022-10-22T07:42:02.986Z,12.41
2022-10-22T07:44:29.285Z,12.52
2022-10-22T07:46:55.608Z,12.65
2022-10-22T07:49:21.956Z,12.71
2022-10-22T07:51:48.259Z,12.59
2022-10-22T07:54:14.579Z,12.66
2022-10-22T07:56:40.866Z,12.77
2022-10-22T07:59:07.173Z,13.01
2022-10-22T08:01:33.549Z,13.17
2022-10-22T08:03:59.902Z,13.27
2022-10-22T08:06:26.230Z,13.37
2022-10-22T08:08:52.579Z,13.50
2022-10-22T08:11:18.957Z,13.64
2022-10-22T08:13:45.924Z,13.78
2022-10-22T08:16:12.615Z,13.87
2022-10-22T08:18:38.955Z,13.89
2022-10-22T08:21:05.446Z,13.99
2022-10-22T08:23:31.875Z,14.07
2022-10-22T08:25:58.183Z,14.16
2022-10-22T08:28:24.991Z,14.36
2022-10-22T08:30:51.526Z,14.53
2022-10-22T08:33:17.892Z,14.68
2022-10-22T08:35:48.622Z,14.80
2022-10-22T08:38:15.067Z,14.88
2022-10-22T08:40:42.588Z,15.08
2022-10-22T08:44:06.557Z,15.23
2022-10-22T08:47:03.680Z,15.51
2022-10-22T08:49:37.156Z,15.71
2022-10-22T08:52:16.521Z,16.00
2022-10-22T08:54:56.632Z,16.09
2022-10-22T08:58:20.605Z,16.25
2022-10-22T09:00:52.270Z,16.37
2022-10-22T09:03:18.529Z,16.39
2022-10-22T09:06:32.529Z,16.31
2022-10-22T09:09:01.179Z,16.62
2022-10-22T09:11:31.907Z,16.75
2022-10-22T09:13:59.730Z,16.67
2022-10-22T09:16:53.777Z,16.61
2022-10-22T09:19:39.940Z,16.64
2022-10-22T09:22:17.747Z,16.71
2022-10-22T09:24:52.435Z,16.82
2022-10-22T09:27:27.867Z,17.03
2022-10-22T09:29:54.218Z,17.11
2022-10-22T09:32:20.586Z,17.03
2022-10-22T09:34:49.016Z,17.15
2022-10-22T09:37:24.701Z,17.25
2022-10-22T09:39:52.305Z,17.41
2022-10-22T09:42:20.541Z,17.42
2022-10-22T09:44:53.858Z,17.50
2022-10-22T09:47:42.964Z,17.27
2022-10-22T09:50:21.209Z,17.39
2022-10-22T09:53:20.299Z,17.30
2022-10-22T09:55:53.827Z,17.29
2022-10-22T09:58:20.630Z,17.29
2022-10-22T10:00:52.219Z,17.22
2022-10-22T10:03:21.709Z,17.58
2022-10-22T10:05:54.090Z,17.79
2022-10-22T10:08:20.799Z,17.74
2022-10-22T10:10:52.173Z,17.80
2022-10-22T10:13:57.067Z,17.85
2022-10-22T10:17:04.821Z,17.65
2022-10-22T10:19:33.908Z,17.61
2022-10-22T10:22:21.718Z,17.73
2022-10-22T10:24:55.917Z,17.81
2022-10-22T10:27:28.995Z,17.84
2022-10-22T10:30:17.105Z,17.67
2022-10-22T10:33:12.330Z,17.85
2022-10-22T10:36:09.716Z,17.82
2022-10-22T10:38:44.812Z,17.46
2022-10-22T10:41:16.298Z,17.56
2022-10-22T10:44:11.957Z,17.81
2022-10-22T10:46:53.364Z,18.18
2022-10-22T10:49:24.344Z,18.28
2022-10-22T10:52:01.461Z,18.30
2022-10-22T10:54:49.257Z,18.26
2022-10-22T10:57:46.634Z,18.55
2022-10-22T11:00:18.791Z,18.79
2022-10-22T11:03:03.229Z,18.73
2022-10-22T11:05:43.722Z,18.85
2022-10-22T11:08:24.671Z,18.49
2022-10-22T11:11:05.266Z,18.19
2022-10-22T11:13:36.741Z,18.24
2022-10-22T11:16:20.022Z,18.11
2022-10-22T11:18:55.256Z,18.18
2022-10-22T11:21:27.004Z,18.16
2022-10-22T11:24:20.530Z,18.06
2022-10-22T11:27:10.160Z,17.86
2022-10-22T11:29:52.147Z,18.05
2022-10-22T11:32:20.849Z,18.16
2022-10-22T11:34:53.442Z,18.07
2022-10-22T11:37:20.899Z,17.92
2022-10-22T11:40:03.040Z,17.88
2022-10-22T11:42:37.137Z,17.94
2022-10-22T11:45:15.409Z,17.76
2022-10-22T11:47:58.296Z,17.66
2022-10-22T11:50:46.300Z,17.87
2022-10-22T11:53:12.666Z,17.82
2022-10-22T11:55:44.997Z,17.84
2022-10-22T11:58:28.088Z,18.18
2022-10-22T12:00:56.547Z,18.44
2022-10-22T12:03:31.914Z,18.41
2022-10-22T12:06:07.431Z,18.63
2022-10-22T12:08:34.487Z,18.79
2022-10-22T12:11:21.172Z,18.81
2022-10-22T12:14:03.703Z,18.72
2022-10-22T12:16:55.149Z,18.76
2022-10-22T12:19:22.268Z,18.70
2022-10-22T12:22:08.427Z,18.67
2022-10-22T12:24:37.704Z,18.65
2022-10-22T12:27:04.457Z,18.42
2022-10-22T12:29:32.547Z,18.13
2022-10-22T12:32:04.010Z,17.87
2022-10-22T12:34:30.395Z,17.68
2022-10-22T12:36:56.698Z,17.57
2022-10-22T12:39:26.807Z,17.54
2022-10-22T12:41:54.325Z,17.42
2022-10-22T12:44:20.765Z,17.11
2022-10-22T12:46:51.747Z,17.21
2022-10-22T12:49:23.542Z,17.13
2022-10-22T12:51:49.937Z,17.00
2022-10-22T12:54:30.930Z,17.03
2022-10-22T12:56:57.968Z,17.05
2022-10-22T12:59:27.726Z,17.15
2022-10-22T13:01:54.848Z,17.29
2022-10-22T13:04:26.945Z,17.57
2022-10-22T13:07:06.588Z,17.76
2022-10-22T13:09:39.717Z,17.92
2022-10-22T13:12:07.852Z,18.05
2022-10-22T13:14:36.132Z,18.35
2022-10-22T13:17:28.648Z,18.35
2022-10-22T13:19:54.907Z,18.15
2022-10-22T13:22:26.452Z,18.01
2022-10-22T13:24:53.389Z,18.01
2022-10-22T13:27:20.227Z,18.02
2022-10-22T13:29:46.663Z,17.96
2022-10-22T13:32:29.497Z,17.61
2022-10-22T13:34:57.876Z,17.49
2022-10-22T13:37:24.746Z,17.12
2022-10-22T13:39:51.050Z,16.84
2022-10-22T13:42:17.374Z,16.81
2022-10-22T13:44:43.704Z,16.74
2022-10-22T13:47:29.505Z,16.54
2022-10-22T13:49:59.951Z,16.49
2022-10-22T13:52:39.944Z,16.45
2022-10-22T13:55:26.684Z,16.46
2022-10-22T13:58:14.949Z,16.39
2022-10-22T14:00:44.172Z,16.57
2022-10-22T14:03:13.550Z,16.86
2022-10-22T14:05:39.940Z,16.92
2022-10-22T14:08:12.479Z,17.11
2022-10-22T14:10:38.802Z,17.01
2022-10-22T14:13:10.923Z,16.71
2022-10-22T14:15:37.928Z,16.64
2022-10-22T14:18:06.125Z,16.41
2022-10-22T14:20:36.084Z,16.38
2022-10-22T14:23:28.540Z,16.34
2022-10-22T14:25:55.603Z,16.36
2022-10-22T14:28:21.957Z,16.16
2022-10-22T14:30:48.468Z,16.13
2022-10-22T14:33:19.060Z,16.18
2022-10-22T14:35:45.756Z,16.05
2022-10-22T14:38:12.079Z,15.96
2022-10-22T14:40:39.902Z,15.96
2022-10-22T14:43:06.243Z,15.98
2022-10-22T14:45:32.593Z,15.97
2022-10-22T14:47:58.922Z,15.82
2022-10-22T14:50:25.315Z,15.89
2022-10-22T14:52:51.929Z,15.84
2022-10-22T14:55:19.461Z,15.67
2022-10-22T14:57:46.358Z,15.77
2022-10-22T15:00:16.204Z,15.83
2022-10-22T15:02:43.275Z,15.80
2022-10-22T15:05:10.038Z,15.68
2022-10-22T15:07:36.611Z,15.50
2022-10-22T15:10:04.982Z,15.44
2022-10-22T15:12:31.358Z,15.41
2022-10-22T15:14:57.676Z,15.32
2022-10-22T15:17:24.110Z,15.28
2022-10-22T15:19:50.684Z,15.28
2022-10-22T15:22:16.987Z,15.30
2022-10-22T15:24:43.335Z,15.17
2022-10-22T15:27:09.777Z,15.24
2022-10-22T15:29:36.198Z,15.20
2022-10-22T15:32:02.575Z,15.06
2022-10-22T15:34:39.312Z,14.98
2022-10-22T15:37:08.925Z,15.00
2022-10-22T15:39:35.810Z,14.94
2022-10-22T15:42:02.199Z,14.97
2022-10-22T15:44:30.789Z,15.02
2022-10-22T15:46:57.761Z,15.02
2022-10-22T15:49:25.698Z,15.00
2022-10-22T15:51:52.469Z,15.03
2022-10-22T15:54:24.674Z,15.08
2022-10-22T15:56:51.596Z,15.08
2022-10-22T15:59:18.322Z,15.17
2022-10-22T16:01:45.231Z,15.33
2022-10-22T16:04:11.591Z,15.43
2022-10-22T16:06:41.326Z,15.42
2022-10-22T16:09:13.061Z,15.43
2022-10-22T16:11:39.848Z,15.08
2022-10-22T16:14:06.667Z,15.18
2022-10-22T16:16:36.003Z,15.10
2022-10-22T16:19:02.591Z,15.23
2022-10-22T16:21:28.954Z,14.97
2022-10-22T16:23:55.270Z,14.97
2022-10-22T16:26:21.585Z,14.85
2022-10-22T16:28:48.468Z,14.85
2022-10-22T16:31:17.680Z,14.74
2022-10-22T16:33:47.777Z,14.73
2022-10-22T16:36:18.945Z,14.60
2022-10-22T16:38:46.616Z,14.60
2022-10-22T16:41:18.729Z,14.53
2022-10-22T16:43:47.147Z,14.44
2022-10-22T16:46:14.690Z,14.38
2022-10-22T16:48:45.716Z,14.19
2022-10-22T16:51:14.019Z,14.00
2022-10-22T16:53:40.313Z,13.81
2022-10-22T16:56:14.332Z,13.73
2022-10-22T16:58:46.416Z,13.67
2022-10-22T17:01:15.927Z,13.62
2022-10-22T17:03:44.587Z,13.56
2022-10-22T17:06:11.033Z,13.50
2022-10-22T17:08:38.727Z,13.47
2022-10-22T17:11:09.779Z,13.44
2022-10-22T17:13:36.443Z,13.42
2022-10-22T17:16:04.888Z,13.37
2022-10-22T17:18:31.958Z,13.39
2022-10-22T17:20:58.358Z,13.34
2022-10-22T17:23:27.782Z,13.28
2022-10-22T17:25:59.300Z,13.22
2022-10-22T17:28:26.905Z,13.22
2022-10-22T17:31:08.007Z,13.12
2022-10-22T17:33:36.561Z,13.15
2022-10-22T17:36:06.974Z,13.16
2022-10-22T17:38:33.319Z,13.10
2022-10-22T17:41:04.039Z,13.05
2022-10-22T17:43:33.306Z,13.00
2022-10-22T17:46:11.191Z,12.89
2022-10-22T17:48:37.617Z,12.81
2022-10-22T17:51:08.524Z,12.72
2022-10-22T17:53:35.489Z,12.61
2022-10-22T17:56:03.867Z,12.62
2022-10-22T17:58:30.455Z,12.51
2022-10-22T18:00:58.031Z,12.53
2022-10-22T18:03:24.647Z,12.46
2022-10-22T18:05:50.943Z,12.38
2022-10-22T18:08:17.266Z,12.36
2022-10-22T18:10:43.565Z,12.35
2022-10-22T18:13:09.895Z,12.30
2022-10-22T18:15:36.295Z,12.29
2022-10-22T18:18:04.106Z,12.25
2022-10-22T18:20:30.981Z,12.20
2022-10-22T18:22:57.292Z,12.12
2022-10-22T18:25:23.650Z,12.04
2022-10-22T18:27:50.023Z,12.44
2022-10-22T18:30:16.429Z,12.54
2022-10-22T18:32:42.726Z,12.41
2022-10-22T18:35:09.191Z,12.19
2022-10-22T18:37:35.498Z,12.09
2022-10-22T18:40:03.076Z,12.16
2022-10-22T18:42:32.752Z,12.37
2022-10-22T18:45:00.863Z,12.30
2022-10-22T18:47:27.168Z,12.15
2022-10-22T18:49:53.496Z,11.85
2022-10-22T18:52:19.805Z,11.82
2022-10-22T18:54:46.165Z,11.61
2022-10-22T18:57:12.554Z,11.48
2022-10-22T18:59:38.864Z,11.59
2022-10-22T19:02:05.313Z,11.51
2022-10-22T19:04:31.760Z,11.38
2022-10-22T19:06:58.442Z,11.41
2022-10-22T19:09:25.883Z,11.42
2022-10-22T19:11:52.263Z,11.23
2022-10-22T19:14:18.598Z,11.24
2022-10-22T19:16:45.220Z,11.23
2022-10-22T19:19:16.623Z,10.92
2022-10-22T19:21:42.967Z,10.84
2022-10-22T19:24:10.915Z,10.71
2022-10-22T19:26:37.450Z,10.71
2022-10-22T19:29:04.280Z,10.75
2022-10-22T19:31:31.417Z,10.80
2022-10-22T19:33:59.932Z,10.71
2022-10-22T19:36:27.365Z,10.76
2022-10-22T19:38:54.119Z,10.63
2022-10-22T19:41:22.559Z,10.54
2022-10-22T19:43:51.594Z,10.48
2022-10-22T19:46:19.366Z,10.51
2022-10-22T19:51:20.105Z,10.59
2022-10-22T19:53:46.797Z,10.47
2022-10-22T19:56:17.059Z,10.38
2022-10-22T19:58:43.929Z,10.38
2022-10-22T20:01:12.119Z,10.54
2022-10-22T20:03:41.673Z,10.48
2022-10-22T20:06:10.419Z,10.36
2022-10-22T20:08:37.770Z,10.26
2022-10-22T20:11:06.410Z,10.24
2022-10-22T20:13:33.647Z,10.32
2022-10-22T20:15:59.970Z,10.42
2022-10-22T20:18:26.656Z,10.46
2022-10-22T20:20:53.065Z,10.36
2022-10-22T20:23:19.484Z,10.27
2022-10-22T20:25:47.136Z,10.14
2022-10-22T20:28:14.430Z,10.41
2022-10-22T20:30:42.494Z,10.19
2022-10-22T20:33:08.960Z,10.20
2022-10-22T20:35:36.693Z,10.14
2022-10-22T20:38:04.665Z,10.23
2022-10-22T20:40:31.937Z,10.32
2022-10-22T20:43:01.806Z,10.38
2022-10-22T20:45:28.749Z,10.39
2022-10-22T20:48:02.629Z,10.33
2022-10-22T20:50:30.369Z,10.30
2022-10-22T20:52:56.761Z,10.27
2022-10-22T20:55:23.143Z,10.26
2022-10-22T20:57:49.634Z,10.30
2022-10-22T21:00:16.376Z,10.32
2022-10-22T21:02:42.722Z,10.29
2022-10-22T21:05:09.231Z,10.28
2022-10-22T21:07:35.531Z,10.24
2022-10-22T21:10:01.955Z,10.25
2022-10-22T21:12:28.262Z,10.24
2022-10-22T21:14:54.566Z,10.16
2022-10-22T21:17:20.875Z,10.08
2022-10-22T21:19:47.165Z,10.06
2022-10-22T21:22:13.490Z,10.03
2022-10-22T21:24:39.805Z,10.00
2022-10-22T21:27:06.118Z,10.00
2022-10-22T21:29:32.496Z,9.96
2022-10-22T21:31:58.836Z,9.95
2022-10-22T21:34:25.475Z,9.81
2022-10-22T21:36:51.811Z,9.90
2022-10-22T21:39:18.122Z,9.88
2022-10-22T21:41:44.466Z,9.89
2022-10-22T21:44:10.950Z,9.93
2022-10-22T21:46:37.292Z,9.93
2022-10-22T21:49:04.216Z,9.92
2022-10-22T21:51:32.971Z,9.92
2022-10-22T21:53:59.548Z,9.89
2022-10-22T21:56:28.754Z,9.92
2022-10-22T21:58:55.851Z,9.84
2022-10-22T22:01:22.567Z,9.82
2022-10-22T22:03:49.816Z,9.88
2022-10-22T22:06:21.188Z,9.85
2022-10-22T22:08:48.717Z,9.81
2022-10-22T22:11:20.959Z,9.81
2022-10-22T22:13:47.689Z,9.78
2022-10-22T22:16:17.872Z,9.79
2022-10-22T22:18:44.232Z,9.76
2022-10-22T22:21:17.873Z,9.78
2022-10-22T22:23:46.552Z,9.70
2022-10-22T22:26:14.366Z,9.69
2022-10-22T22:28:40.702Z,9.71
2022-10-22T22:31:15.279Z,9.72
2022-10-22T22:33:41.938Z,9.74
2022-10-22T22:36:08.527Z,9.72
2022-10-22T22:38:34.913Z,9.71
2022-10-22T22:41:02.077Z,9.80
2022-10-22T22:43:28.459Z,9.86
2022-10-22T22:46:06.139Z,9.92
2022-10-22T22:48:33.513Z,9.99
2022-10-22T22:51:02.375Z,10.04
2022-10-22T22:53:29.078Z,10.07
2022-10-22T22:56:15.770Z,10.00
2022-10-22T22:58:42.824Z,10.09
2022-10-22T23:01:22.592Z,10.01
2022-10-22T23:03:54.919Z,9.91
2022-10-22T23:06:21.585Z,9.86
2022-10-22T23:08:49.865Z,9.81
2022-10-22T23:11:16.567Z,9.73
2022-10-22T23:13:43.377Z,9.68
2022-10-22T23:16:17.756Z,9.70
2022-10-22T23:18:45.688Z,9.80
2022-10-22T23:21:27.572Z,9.82
2022-10-22T23:23:56.977Z,9.88
2022-10-22T23:26:35.442Z,9.93
2022-10-22T23:29:17.587Z,9.93
2022-10-22T23:31:44.619Z,9.98
2022-10-22T23:34:14.368Z,9.95
2022-10-22T23:36:40.775Z,10.04
2022-10-22T23:39:10.055Z,10.12
2022-10-22T23:41:37.325Z,10.11
2022-10-22T23:44:04.864Z,10.10
2022-10-22T23:46:31.190Z,10.09
2022-10-22T23:48:57.514Z,10.10
2022-10-22T23:51:23.884Z,10.08
2022-10-22T23:53:56.328Z,10.07
2022-10-22T23:56:22.707Z,10.10
2022-10-22T23:58:51.182Z,10.18
